Temp: 16.8°C   Baro: 1017.9mb
  Wind: 6.9mph   Dir: WSW (248°)
  Rain: 0.0mm (0.0mm/hr)
  Solar: 26W/m2  Hum: 88%
 
Bath Spa Weather Historical Data
 
Daily Summary for August 19, 2018 Units:  Metric    English   Both
Next Day »
Daily Weekly Monthly Yearly Custom
  Current: High: Low: Average:
Temperature: 16.8 °C 17.6 °C 16.2 °C 16.6 °C
Dew Point: 14.6 °C 16.6 °C 14.2 °C 14.9 °C
Humidity: 87% 94% 87% 90%
Wind Speed: 11.1km/h 16.3km/h 0.0km/h 6.2km/h
Wind Gust: 17.7km/h 24.1km/h - -
Wind directionSW - - SW
Pressure: 1017.8 hPa 1019.9 hPa 1017.8 hPa -
Precipitation: 0.0 mm      
Historical Graphs
 
 
Tabular Data for August 19, 2018
Time Temperature Dew Point Pressure Wind direction Wind Speed Wind Gust Humidity Rainfall Rate (Hourly) solar
00:03 17.5 °C 16.5 °C 1019.9 hPa SW 1.4 km/h 9.7 km/h 94% 0.0 mm 0.00 W/m2
00:08 17.5 °C 16.5 °C 1019.9 hPa SW 3.2 km/h 4.8 km/h 94% 0.0 mm 0.00 W/m2
00:13 17.5 °C 16.5 °C 1019.9 hPa SW 4.7 km/h 6.4 km/h 94% 0.0 mm 0.00 W/m2
00:19 17.6 °C 16.6 °C 1019.9 hPa SW 1.4 km/h 1.6 km/h 94% 0.0 mm 0.00 W/m2
00:24 17.5 °C 16.5 °C 1019.9 hPa SW 3.2 km/h 8.0 km/h 94% 0.0 mm 0.00 W/m2
00:29 17.5 °C 16.5 °C 1019.9 hPa SW 3.2 km/h 9.7 km/h 94% 0.0 mm 0.00 W/m2
00:34 17.5 °C 16.5 °C 1019.9 hPa SW 1.4 km/h 6.4 km/h 94% 0.0 mm 0.00 W/m2
00:39 17.5 °C 16.5 °C 1019.5 hPa SW 7.9 km/h 8.0 km/h 94% 0.0 mm 0.00 W/m2
00:44 17.5 °C 16.4 °C 1019.5 hPa SSW 1.4 km/h 11.3 km/h 93% 0.0 mm 0.00 W/m2
00:49 17.5 °C 16.4 °C 1019.5 hPa SSW 1.4 km/h 4.8 km/h 93% 0.0 mm 0.00 W/m2
00:54 17.5 °C 16.4 °C 1019.5 hPa Calm   9.7 km/h 93% 0.0 mm 0.00 W/m2
00:59 17.4 °C 16.3 °C 1019.5 hPa SW 6.4 km/h 11.3 km/h 93% 0.0 mm 0.00 W/m2
01:04 17.3 °C 16.0 °C 1019.5 hPa SW 11.1 km/h 12.9 km/h 92% 0.0 mm 0.00 W/m2
01:09 17.2 °C 15.9 °C 1019.5 hPa SW 6.4 km/h 12.9 km/h 92% 0.0 mm 0.00 W/m2
01:14 17.1 °C 15.8 °C 1019.5 hPa SW 1.4 km/h 6.4 km/h 92% 0.0 mm 0.00 W/m2
01:19 16.9 °C 15.6 °C 1019.5 hPa SW 1.4 km/h 14.5 km/h 92% 0.0 mm 0.00 W/m2
01:24 16.8 °C 15.3 °C 1019.5 hPa SW 7.9 km/h 11.3 km/h 91% 0.0 mm 0.00 W/m2
01:29 16.8 °C 15.3 °C 1019.5 hPa WSW 4.7 km/h 16.1 km/h 91% 0.0 mm 0.00 W/m2
01:34 16.7 °C 15.2 °C 1019.5 hPa SW 3.2 km/h 8.0 km/h 91% 0.0 mm 0.00 W/m2
01:39 16.5 °C 15.0 °C 1019.5 hPa WSW 6.4 km/h 12.9 km/h 91% 0.0 mm 0.00 W/m2
01:44 16.5 °C 15.0 °C 1019.5 hPa WSW 9.7 km/h 12.9 km/h 91% 0.0 mm 0.00 W/m2
01:49 16.5 °C 15.0 °C 1019.5 hPa SW 4.7 km/h 9.7 km/h 91% 0.0 mm 0.00 W/m2
01:54 16.4 °C 14.9 °C 1019.5 hPa WSW 7.9 km/h 8.0 km/h 91% 0.0 mm 0.00 W/m2
01:59 16.4 °C 14.9 °C 1019.5 hPa SW 3.2 km/h 9.7 km/h 91% 0.0 mm 0.00 W/m2
02:04 16.3 °C 14.7 °C 1019.5 hPa SW 7.9 km/h 12.9 km/h 90% 0.0 mm 0.00 W/m2
02:09 16.3 °C 14.8 °C 1019.5 hPa SSW 3.2 km/h 6.4 km/h 91% 0.0 mm 0.00 W/m2
02:14 16.3 °C 14.8 °C 1019.5 hPa Calm   1.6 km/h 91% 0.0 mm 0.00 W/m2
02:19 16.3 °C 14.8 °C 1019.5 hPa WSW 3.2 km/h 6.4 km/h 91% 0.0 mm 0.00 W/m2
02:24 16.3 °C 14.7 °C 1019.5 hPa West 3.2 km/h 6.4 km/h 90% 0.0 mm 0.00 W/m2
02:29 16.3 °C 14.7 °C 1019.5 hPa WSW 6.4 km/h 11.3 km/h 90% 0.0 mm 0.00 W/m2
02:34 16.3 °C 14.7 °C 1019.5 hPa WSW 6.4 km/h 9.7 km/h 90% 0.0 mm 0.00 W/m2
02:39 16.3 °C 14.7 °C 1019.5 hPa WSW 6.4 km/h 12.9 km/h 90% 0.0 mm 0.00 W/m2
02:44 16.3 °C 14.7 °C 1019.5 hPa SW 11.1 km/h 14.5 km/h 90% 0.0 mm 0.00 W/m2
02:49 16.3 °C 14.7 °C 1019.2 hPa SW 11.1 km/h 14.5 km/h 90% 0.0 mm 0.00 W/m2
02:54 16.3 °C 14.7 °C 1019.2 hPa SW 13.0 km/h 17.7 km/h 90% 0.0 mm 0.00 W/m2
02:59 16.4 °C 14.6 °C 1019.2 hPa SW 11.1 km/h 19.3 km/h 89% 0.0 mm 0.00 W/m2
03:04 16.4 °C 14.6 °C 1019.2 hPa WSW 6.4 km/h 12.9 km/h 89% 0.0 mm 0.00 W/m2
03:09 16.3 °C 14.5 °C 1019.2 hPa WSW 13.0 km/h 14.5 km/h 89% 0.0 mm 0.00 W/m2
03:14 16.4 °C 14.6 °C 1019.2 hPa WSW 7.9 km/h 17.7 km/h 89% 0.0 mm 0.00 W/m2
03:19 16.4 °C 14.6 °C 1019.2 hPa WSW 7.9 km/h 12.9 km/h 89% 0.0 mm 0.00 W/m2
03:24 16.3 °C 14.3 °C 1019.2 hPa WSW 6.4 km/h 6.4 km/h 88% 0.0 mm 0.00 W/m2
03:29 16.3 °C 14.3 °C 1019.2 hPa SSW 4.7 km/h 9.7 km/h 88% 0.0 mm 0.00 W/m2
03:34 16.3 °C 14.3 °C 1018.8 hPa SW 3.2 km/h 9.7 km/h 88% 0.0 mm 0.00 W/m2
03:39 16.3 °C 14.3 °C 1018.8 hPa WSW 11.1 km/h 11.3 km/h 88% 0.0 mm 0.00 W/m2
03:44 16.3 °C 14.3 °C 1018.8 hPa Calm   4.8 km/h 88% 0.0 mm 0.00 W/m2
03:49 16.3 °C 14.3 °C 1018.8 hPa WSW 13.0 km/h 12.9 km/h 88% 0.0 mm 0.00 W/m2
03:54 16.3 °C 14.3 °C 1018.8 hPa WSW 16.3 km/h 20.9 km/h 88% 0.0 mm 0.00 W/m2
03:59 16.2 °C 14.2 °C 1018.5 hPa SSW 4.7 km/h 14.5 km/h 88% 0.0 mm 0.00 W/m2
04:04 16.2 °C 14.2 °C 1018.5 hPa WSW 4.7 km/h 11.3 km/h 88% 0.0 mm 0.00 W/m2
04:09 16.2 °C 14.2 °C 1018.5 hPa SW 6.4 km/h 11.3 km/h 88% 0.0 mm 0.00 W/m2
04:14 16.2 °C 14.2 °C 1018.5 hPa SW 7.9 km/h 16.1 km/h 88% 0.0 mm 0.00 W/m2
04:19 16.2 °C 14.2 °C 1018.5 hPa WSW 4.7 km/h 12.9 km/h 88% 0.0 mm 0.00 W/m2
04:24 16.2 °C 14.2 °C 1018.5 hPa WSW 11.1 km/h 11.3 km/h 88% 0.0 mm 0.00 W/m2
04:29 16.2 °C 14.2 °C 1018.2 hPa SW 3.2 km/h 12.9 km/h 88% 0.0 mm 0.00 W/m2
04:34 16.2 °C 14.4 °C 1018.2 hPa SW 4.7 km/h 11.3 km/h 89% 0.0 mm 0.00 W/m2
04:39 16.2 °C 14.4 °C 1018.2 hPa SW 4.7 km/h 12.9 km/h 89% 0.0 mm 0.00 W/m2
04:44 16.2 °C 14.4 °C 1018.2 hPa Calm   3.2 km/h 89% 0.0 mm 0.00 W/m2
04:49 16.2 °C 14.4 °C 1017.8 hPa SW 1.4 km/h 6.4 km/h 89% 0.0 mm 0.00 W/m2
04:54 16.2 °C 14.4 °C 1017.8 hPa SW 4.7 km/h 8.0 km/h 89% 0.0 mm 0.00 W/m2
04:59 16.3 °C 14.5 °C 1017.8 hPa WSW 3.2 km/h 6.4 km/h 89% 0.0 mm 0.00 W/m2
05:04 16.3 °C 14.3 °C 1017.8 hPa WSW 4.7 km/h 9.7 km/h 88% 0.0 mm 0.00 W/m2
05:09 16.4 °C 14.4 °C 1017.8 hPa West 1.4 km/h 11.3 km/h 88% 0.0 mm 0.00 W/m2
05:14 16.4 °C 14.4 °C 1017.8 hPa WSW 9.7 km/h 12.9 km/h 88% 0.0 mm 0.00 W/m2
05:19 16.4 °C 14.4 °C 1017.8 hPa Calm   8.0 km/h 88% 0.0 mm 0.00 W/m2
05:24 16.5 °C 14.5 °C 1017.8 hPa West 6.4 km/h 11.3 km/h 88% 0.0 mm 0.00 W/m2
05:29 16.5 °C 14.5 °C 1017.8 hPa WSW 13.0 km/h 17.7 km/h 88% 0.0 mm 0.00 W/m2
05:34 16.5 °C 14.5 °C 1017.8 hPa West 3.2 km/h 12.9 km/h 88% 0.0 mm 0.00 W/m2
05:39 16.5 °C 14.5 °C 1017.8 hPa SW 3.2 km/h 12.9 km/h 88% 0.0 mm 0.00 W/m2
05:44 16.5 °C 14.5 °C 1017.8 hPa WSW 6.4 km/h 16.1 km/h 88% 0.0 mm 0.00 W/m2
05:49 16.6 °C 14.6 °C 1017.8 hPa WSW 16.3 km/h 17.7 km/h 88% 0.0 mm 0.00 W/m2
05:54 16.7 °C 14.7 °C 1017.8 hPa SW 6.4 km/h 17.7 km/h 88% 0.0 mm 0.00 W/m2
05:59 16.7 °C 14.5 °C 1017.8 hPa WSW 7.9 km/h 11.3 km/h 87% 0.0 mm 0.00 W/m2
06:04 16.7 °C 14.5 °C 1017.8 hPa WSW 1.4 km/h 16.1 km/h 87% 0.0 mm 0.00 W/m2
06:09 16.7 °C 14.5 °C 1017.8 hPa WSW 13.0 km/h 17.7 km/h 87% 0.0 mm 0.00 W/m2
06:14 16.7 °C 14.5 °C 1017.8 hPa WSW 6.4 km/h 16.1 km/h 87% 0.0 mm 0.00 W/m2
06:19 16.7 °C 14.5 °C 1017.8 hPa WSW 13.0 km/h 16.1 km/h 87% 0.0 mm 0.00 W/m2
06:24 16.7 °C 14.5 °C 1017.8 hPa West 3.2 km/h 17.7 km/h 87% 0.0 mm 0.00 W/m2
06:29 16.7 °C 14.5 °C 1017.8 hPa WSW 11.1 km/h 14.5 km/h 87% 0.0 mm 5.00 W/m2
06:34 16.7 °C 14.5 °C 1017.8 hPa WSW 11.1 km/h 17.7 km/h 87% 0.0 mm 11.00 W/m2
06:39 16.7 °C 14.5 °C 1017.8 hPa SW 9.7 km/h 17.7 km/h 87% 0.0 mm 14.00 W/m2
06:44 16.8 °C 14.6 °C 1017.8 hPa WSW 6.4 km/h 16.1 km/h 87% 0.0 mm 19.00 W/m2
06:49 16.8 °C 14.6 °C 1017.8 hPa SSW 13.0 km/h 24.1 km/h 87% 0.0 mm 21.00 W/m2
06:54 16.8 °C 14.6 °C 1017.8 hPa SW 11.1 km/h 17.7 km/h 87% 0.0 mm 25.00 W/m2